sensor_id;sensor_type;location;lat;lon;timestamp;pressure;altitude;pressure_sealevel;temperature;humidity
11085;BME280;5596;46.826;8.650;2023-04-30T00:02:18;96222.31;;;11.64;100.00
11085;BME280;5596;46.826;8.650;2023-04-30T00:04:44;96229.09;;;11.66;100.00
11085;BME280;5596;46.826;8.650;2023-04-30T00:07:11;96228.63;;;11.69;100.00
11085;BME280;5596;46.826;8.650;2023-04-30T00:09:38;96229.59;;;11.63;100.00
11085;BME280;5596;46.826;8.650;2023-04-30T00:12:05;96227.44;;;11.65;100.00
11085;BME280;5596;46.826;8.650;2023-04-30T00:14:31;96228.53;;;11.64;100.00
11085;BME280;5596;46.826;8.650;2023-04-30T00:16:59;96230.88;;;11.61;100.00
11085;BME280;5596;46.826;8.650;2023-04-30T00:19:26;96233.59;;;11.61;100.00
11085;BME280;5596;46.826;8.650;2023-04-30T00:21:54;96224.41;;;11.62;100.00
11085;BME280;5596;46.826;8.650;2023-04-30T00:24:21;96223.81;;;11.60;100.00
11085;BME280;5596;46.826;8.650;2023-04-30T00:26:48;96225.16;;;11.46;100.00
11085;BME280;5596;46.826;8.650;2023-04-30T00:29:14;96226.81;;;11.47;100.00
11085;BME280;5596;46.826;8.650;2023-04-30T00:31:43;96226.47;;;11.43;100.00
11085;BME280;5596;46.826;8.650;2023-04-30T00:34:11;96230.94;;;11.37;100.00
11085;BME280;5596;46.826;8.650;2023-04-30T00:36:38;96223.16;;;11.41;100.00
11085;BME280;5596;46.826;8.650;2023-04-30T00:39:05;96225.63;;;11.43;100.00
11085;BME280;5596;46.826;8.650;2023-04-30T00:41:32;96213.16;;;11.42;100.00
11085;BME280;5596;46.826;8.650;2023-04-30T00:44:00;96219.75;;;11.46;100.00
11085;BME280;5596;46.826;8.650;2023-04-30T00:46:27;96215.63;;;11.55;100.00
11085;BME280;5596;46.826;8.650;2023-04-30T00:48:55;96209.84;;;11.63;100.00
11085;BME280;5596;46.826;8.650;2023-04-30T00:51:23;96208.03;;;11.68;100.00
11085;BME280;5596;46.826;8.650;2023-04-30T00:53:49;96207.94;;;11.75;100.00
11085;BME280;5596;46.826;8.650;2023-04-30T00:56:16;96206.47;;;11.84;100.00
11085;BME280;5596;46.826;8.650;2023-04-30T00:58:43;96201.75;;;11.91;100.00
11085;BME280;5596;46.826;8.650;2023-04-30T01:01:11;96203.38;;;11.92;100.00
11085;BME280;5596;46.826;8.650;2023-04-30T01:03:37;96198.25;;;11.91;100.00
11085;BME280;5596;46.826;8.650;2023-04-30T01:06:05;96205.84;;;11.94;100.00
11085;BME280;5596;46.826;8.650;2023-04-30T01:08:33;96206.44;;;11.96;100.00
11085;BME280;5596;46.826;8.650;2023-04-30T01:11:03;96209.38;;;11.94;100.00
11085;BME280;5596;46.826;8.650;2023-04-30T01:13:37;96207.16;;;11.91;100.00
11085;BME280;5596;46.826;8.650;2023-04-30T01:16:06;96211.91;;;11.84;100.00
11085;BME280;5596;46.826;8.650;2023-04-30T01:18:38;96202.88;;;11.79;100.00
11085;BME280;5596;46.826;8.650;2023-04-30T01:21:07;96207.56;;;11.71;100.00
11085;BME280;5596;46.826;8.650;2023-04-30T01:23:50;96212.03;;;11.66;100.00
11085;BME280;5596;46.826;8.650;2023-04-30T01:26:26;96210.66;;;11.63;100.00
11085;BME280;5596;46.826;8.650;2023-04-30T01:28:57;96213.59;;;11.62;100.00
11085;BME280;5596;46.826;8.650;2023-04-30T01:31:25;96212.53;;;11.63;100.00
11085;BME280;5596;46.826;8.650;2023-04-30T01:33:55;96211.50;;;11.64;100.00
11085;BME280;5596;46.826;8.650;2023-04-30T01:36:28;96215.09;;;11.69;100.00
11085;BME280;5596;46.826;8.650;2023-04-30T01:39:01;96217.56;;;11.71;100.00
11085;BME280;5596;46.826;8.650;2023-04-30T01:41:33;96213.34;;;11.75;100.00
11085;BME280;5596;46.826;8.650;2023-04-30T01:44:07;96214.16;;;11.75;100.00
11085;BME280;5596;46.826;8.650;2023-04-30T01:46:37;96210.63;;;11.75;100.00
11085;BME280;5596;46.826;8.650;2023-04-30T01:49:07;96207.34;;;11.73;100.00
11085;BME280;5596;46.826;8.650;2023-04-30T01:51:38;96206.53;;;11.72;100.00
11085;BME280;5596;46.826;8.650;2023-04-30T01:54:08;96209.34;;;11.78;100.00
11085;BME280;5596;46.826;8.650;2023-04-30T01:56:38;96201.56;;;11.81;100.00
11085;BME280;5596;46.826;8.650;2023-04-30T01:59:08;96207.66;;;11.88;100.00
11085;BME280;5596;46.826;8.650;2023-04-30T02:01:35;96201.28;;;11.94;100.00
11085;BME280;5596;46.826;8.650;2023-04-30T02:04:02;96199.75;;;11.98;100.00
11085;BME280;5596;46.826;8.650;2023-04-30T02:06:29;96194.56;;;11.97;100.00
11085;BME280;5596;46.826;8.650;2023-04-30T02:08:56;96192.56;;;11.92;100.00
11085;BME280;5596;46.826;8.650;2023-04-30T02:11:27;96188.97;;;11.87;100.00
11085;BME280;5596;46.826;8.650;2023-04-30T02:13:54;96189.13;;;11.80;100.00
11085;BME280;5596;46.826;8.650;2023-04-30T02:16:23;96188.75;;;11.77;100.00
11085;BME280;5596;46.826;8.650;2023-04-30T02:18:50;96192.06;;;11.79;100.00
11085;BME280;5596;46.826;8.650;2023-04-30T02:21:17;96183.19;;;11.83;100.00
11085;BME280;5596;46.826;8.650;2023-04-30T02:23:44;96189.19;;;11.85;100.00
11085;BME280;5596;46.826;8.650;2023-04-30T02:26:11;96198.25;;;11.91;100.00
11085;BME280;5596;46.826;8.650;2023-04-30T02:28:37;96187.66;;;11.89;100.00
11085;BME280;5596;46.826;8.650;2023-04-30T02:31:04;96186.00;;;11.88;100.00
11085;BME280;5596;46.826;8.650;2023-04-30T02:33:32;96181.44;;;11.89;100.00
11085;BME280;5596;46.826;8.650;2023-04-30T02:35:59;96188.59;;;11.83;100.00
11085;BME280;5596;46.826;8.650;2023-04-30T02:38:26;96184.13;;;11.89;100.00
11085;BME280;5596;46.826;8.650;2023-04-30T02:40:53;96184.72;;;11.91;100.00
11085;BME280;5596;46.826;8.650;2023-04-30T02:43:20;96186.50;;;11.85;100.00
11085;BME280;5596;46.826;8.650;2023-04-30T02:45:47;96183.53;;;11.87;100.00
11085;BME280;5596;46.826;8.650;2023-04-30T02:48:14;96190.84;;;11.86;100.00
11085;BME280;5596;46.826;8.650;2023-04-30T02:50:42;96185.19;;;11.88;100.00
11085;BME280;5596;46.826;8.650;2023-04-30T02:53:09;96185.19;;;11.88;100.00
11085;BME280;5596;46.826;8.650;2023-04-30T02:55:37;96185.50;;;11.91;100.00
11085;BME280;5596;46.826;8.650;2023-04-30T02:58:04;96180.44;;;11.95;100.00
11085;BME280;5596;46.826;8.650;2023-04-30T03:00:31;96182.41;;;11.99;100.00
11085;BME280;5596;46.826;8.650;2023-04-30T03:02:57;96186.28;;;12.03;100.00
11085;BME280;5596;46.826;8.650;2023-04-30T03:05:24;96181.47;;;12.05;100.00
11085;BME280;5596;46.826;8.650;2023-04-30T03:07:52;96183.09;;;12.06;100.00
11085;BME280;5596;46.826;8.650;2023-04-30T03:10:19;96180.88;;;12.03;100.00
11085;BME280;5596;46.826;8.650;2023-04-30T03:12:46;96179.56;;;12.06;100.00
11085;BME280;5596;46.826;8.650;2023-04-30T03:15:12;96177.81;;;12.00;100.00
11085;BME280;5596;46.826;8.650;2023-04-30T03:17:39;96174.56;;;11.98;100.00
11085;BME280;5596;46.826;8.650;2023-04-30T03:20:06;96168.31;;;11.97;100.00
11085;BME280;5596;46.826;8.650;2023-04-30T03:22:33;96169.88;;;11.93;100.00
11085;BME280;5596;46.826;8.650;2023-04-30T03:25:02;96164.97;;;11.90;100.00
11085;BME280;5596;46.826;8.650;2023-04-30T03:27:29;96168.22;;;11.92;100.00
11085;BME280;5596;46.826;8.650;2023-04-30T03:29:55;96169.88;;;11.93;100.00
11085;BME280;5596;46.826;8.650;2023-04-30T03:32:22;96165.50;;;11.92;100.00
11085;BME280;5596;46.826;8.650;2023-04-30T03:34:49;96169.78;;;11.88;100.00
11085;BME280;5596;46.826;8.650;2023-04-30T03:37:16;96168.59;;;11.84;100.00
11085;BME280;5596;46.826;8.650;2023-04-30T03:39:42;96169.94;;;11.82;100.00
11085;BME280;5596;46.826;8.650;2023-04-30T03:42:11;96168.59;;;11.84;100.00
11085;BME280;5596;46.826;8.650;2023-04-30T03:44:38;96163.78;;;11.86;100.00
11085;BME280;5596;46.826;8.650;2023-04-30T03:47:05;96170.75;;;11.82;100.00
11085;BME280;5596;46.826;8.650;2023-04-30T03:49:31;96164.19;;;11.78;100.00
11085;BME280;5596;46.826;8.650;2023-04-30T03:51:58;96165.69;;;11.74;100.00
11085;BME280;5596;46.826;8.650;2023-04-30T03:54:25;96157.25;;;11.70;100.00
11085;BME280;5596;46.826;8.650;2023-04-30T03:56:52;96168.38;;;11.74;100.00
11085;BME280;5596;46.826;8.650;2023-04-30T03:59:20;96169.25;;;11.74;100.00
11085;BME280;5596;46.826;8.650;2023-04-30T04:01:47;96167.94;;;11.77;100.00
11085;BME280;5596;46.826;8.650;2023-04-30T04:04:14;96155.00;;;11.79;100.00
11085;BME280;5596;46.826;8.650;2023-04-30T04:06:41;96158.03;;;11.83;100.00
11085;BME280;5596;46.826;8.650;2023-04-30T04:09:08;96158.84;;;11.83;100.00
11085;BME280;5596;46.826;8.650;2023-04-30T04:11:35;96168.06;;;11.82;100.00
11085;BME280;5596;46.826;8.650;2023-04-30T04:14:01;96170.25;;;11.85;100.00
11085;BME280;5596;46.826;8.650;2023-04-30T04:16:30;96167.31;;;11.87;100.00
11085;BME280;5596;46.826;8.650;2023-04-30T04:18:56;96166.41;;;11.81;100.00
11085;BME280;5596;46.826;8.650;2023-04-30T04:21:23;96171.22;;;11.79;100.00
11085;BME280;5596;46.826;8.650;2023-04-30T04:23:51;96159.34;;;11.80;100.00
11085;BME280;5596;46.826;8.650;2023-04-30T04:26:18;96163.19;;;11.84;100.00
11085;BME280;5596;46.826;8.650;2023-04-30T04:28:45;96161.91;;;11.87;100.00
11085;BME280;5596;46.826;8.650;2023-04-30T04:31:13;96171.44;;;11.89;100.00
11085;BME280;5596;46.826;8.650;2023-04-30T04:33:41;96168.47;;;11.91;100.00
11085;BME280;5596;46.826;8.650;2023-04-30T04:36:08;96168.72;;;11.89;100.00
11085;BME280;5596;46.826;8.650;2023-04-30T04:38:34;96181.00;;;11.80;100.00
11085;BME280;5596;46.826;8.650;2023-04-30T04:41:03;96176.50;;;11.74;100.00
11085;BME280;5596;46.826;8.650;2023-04-30T04:43:30;96179.72;;;11.71;100.00
11085;BME280;5596;46.826;8.650;2023-04-30T04:45:57;96177.34;;;11.74;100.00
11085;BME280;5596;46.826;8.650;2023-04-30T04:48:23;96182.06;;;11.79;100.00
11085;BME280;5596;46.826;8.650;2023-04-30T04:50:52;96182.88;;;11.80;100.00
11085;BME280;5596;46.826;8.650;2023-04-30T04:53:19;96181.59;;;11.82;100.00
11085;BME280;5596;46.826;8.650;2023-04-30T04:55:45;96190.84;;;11.86;100.00
11085;BME280;5596;46.826;8.650;2023-04-30T04:58:12;96188.13;;;11.86;100.00
11085;BME280;5596;46.826;8.650;2023-04-30T05:00:39;96190.59;;;11.88;100.00
11085;BME280;5596;46.826;8.650;2023-04-30T05:03:07;96186.00;;;11.88;100.00
11085;BME280;5596;46.826;8.650;2023-04-30T05:05:34;96196.16;;;11.81;100.00
11085;BME280;5596;46.826;8.650;2023-04-30T05:08:02;96195.44;;;11.74;100.00
11085;BME280;5596;46.826;8.650;2023-04-30T05:10:29;96199.69;;;11.70;100.00
11085;BME280;5596;46.826;8.650;2023-04-30T05:12:56;96199.69;;;11.70;100.00
11085;BME280;5596;46.826;8.650;2023-04-30T05:15:23;96198.88;;;11.69;100.00
11085;BME280;5596;46.826;8.650;2023-04-30T05:17:50;96193.81;;;11.73;100.00
11085;BME280;5596;46.826;8.650;2023-04-30T05:20:17;96203.69;;;11.79;100.00
11085;BME280;5596;46.826;8.650;2023-04-30T05:22:43;96193.53;;;11.86;100.00
11085;BME280;5596;46.826;8.650;2023-04-30T05:25:12;96200.94;;;11.91;100.00
11085;BME280;5596;46.826;8.650;2023-04-30T05:27:38;96190.38;;;11.89;100.00
11085;BME280;5596;46.826;8.650;2023-04-30T05:30:05;96196.84;;;11.88;100.00
11085;BME280;5596;46.826;8.650;2023-04-30T05:32:33;96194.44;;;11.92;100.00
11085;BME280;5596;46.826;8.650;2023-04-30T05:35:00;96195.16;;;11.99;100.00
11085;BME280;5596;46.826;8.650;2023-04-30T05:37:27;96194.06;;;12.00;100.00
11085;BME280;5596;46.826;8.650;2023-04-30T05:39:54;96196.75;;;12.00;100.00
11085;BME280;5596;46.826;8.650;2023-04-30T05:42:22;96197.59;;;12.00;100.00
11085;BME280;5596;46.826;8.650;2023-04-30T05:44:49;96197.19;;;12.08;100.00
11085;BME280;5596;46.826;8.650;2023-04-30T05:47:16;96191.06;;;12.13;100.00
11085;BME280;5596;46.826;8.650;2023-04-30T05:49:42;96190.31;;;12.18;100.00
11085;BME280;5596;46.826;8.650;2023-04-30T05:52:09;96191.00;;;12.25;100.00
11085;BME280;5596;46.826;8.650;2023-04-30T05:54:36;96192.16;;;12.29;100.00
11085;BME280;5596;46.826;8.650;2023-04-30T05:57:02;96193.56;;;12.31;100.00
11085;BME280;5596;46.826;8.650;2023-04-30T05:59:30;96191.91;;;12.30;100.00
11085;BME280;5596;46.826;8.650;2023-04-30T06:01:57;96187.38;;;12.36;100.00
11085;BME280;5596;46.826;8.650;2023-04-30T06:04:24;96189.38;;;12.40;100.00
11085;BME280;5596;46.826;8.650;2023-04-30T06:06:51;96185.91;;;12.45;100.00
11085;BME280;5596;46.826;8.650;2023-04-30T06:09:17;96178.84;;;12.44;100.00
11085;BME280;5596;46.826;8.650;2023-04-30T06:11:45;96186.50;;;12.47;100.00
11085;BME280;5596;46.826;8.650;2023-04-30T06:14:14;96182.50;;;12.49;100.00
11085;BME280;5596;46.826;8.650;2023-04-30T06:16:42;96183.38;;;12.55;100.00
11085;BME280;5596;46.826;8.650;2023-04-30T06:19:09;96187.31;;;12.64;100.00
11085;BME280;5596;46.826;8.650;2023-04-30T06:21:36;96177.97;;;12.72;100.00
11085;BME280;5596;46.826;8.650;2023-04-30T06:24:03;96185.25;;;12.71;100.00
11085;BME280;5596;46.826;8.650;2023-04-30T06:26:31;96177.06;;;12.66;100.00
11085;BME280;5596;46.826;8.650;2023-04-30T06:28:58;96184.13;;;12.67;100.00
11085;BME280;5596;46.826;8.650;2023-04-30T06:31:24;96171.47;;;12.73;100.00
11085;BME280;5596;46.826;8.650;2023-04-30T06:33:53;96178.84;;;12.77;100.00
11085;BME280;5596;46.826;8.650;2023-04-30T06:36:19;96177.59;;;12.85;100.00
11085;BME280;5596;46.826;8.650;2023-04-30T06:38:46;96174.56;;;12.98;100.00
11085;BME280;5596;46.826;8.650;2023-04-30T06:41:13;96167.94;;;13.11;100.00
11085;BME280;5596;46.826;8.650;2023-04-30T06:43:40;96172.41;;;13.17;100.00
11085;BME280;5596;46.826;8.650;2023-04-30T06:46:07;96175.81;;;13.29;100.00
11085;BME280;5596;46.826;8.650;2023-04-30T06:48:34;96173.44;;;13.33;100.00
11085;BME280;5596;46.826;8.650;2023-04-30T06:51:02;96170.84;;;13.43;100.00
11085;BME280;5596;46.826;8.650;2023-04-30T06:53:29;96168.44;;;13.46;100.00
11085;BME280;5596;46.826;8.650;2023-04-30T06:55:55;96172.34;;;13.55;100.00
11085;BME280;5596;46.826;8.650;2023-04-30T06:58:22;96169.97;;;13.59;100.00
11085;BME280;5596;46.826;8.650;2023-04-30T07:00:49;96174.81;;;13.57;100.00
11085;BME280;5596;46.826;8.650;2023-04-30T07:03:16;96179.75;;;13.60;100.00
11085;BME280;5596;46.826;8.650;2023-04-30T07:05:43;96175.19;;;13.66;100.00
11085;BME280;5596;46.826;8.650;2023-04-30T07:08:11;96173.53;;;13.64;100.00
11085;BME280;5596;46.826;8.650;2023-04-30T07:10:39;96179.53;;;13.67;100.00
11085;BME280;5596;46.826;8.650;2023-04-30T07:13:06;96177.94;;;13.71;100.00
11085;BME280;5596;46.826;8.650;2023-04-30T07:15:32;96179.38;;;13.78;100.00
11085;BME280;5596;46.826;8.650;2023-04-30T07:17:59;96173.88;;;13.68;100.00
11085;BME280;5596;46.826;8.650;2023-04-30T07:20:28;96180.63;;;13.66;100.00
11085;BME280;5596;46.826;8.650;2023-04-30T07:22:55;96179.66;;;13.77;100.00
11085;BME280;5596;46.826;8.650;2023-04-30T07:25:23;96171.59;;;13.87;100.00
11085;BME280;5596;46.826;8.650;2023-04-30T07:27:50;96171.72;;;13.97;100.00
11085;BME280;5596;46.826;8.650;2023-04-30T07:30:17;96174.50;;;14.02;100.00
11085;BME280;5596;46.826;8.650;2023-04-30T07:32:46;96168.50;;;14.00;100.00
11085;BME280;5596;46.826;8.650;2023-04-30T07:35:12;96169.09;;;14.02;100.00
11085;BME280;5596;46.826;8.650;2023-04-30T07:37:39;96166.63;;;14.00;100.00
11085;BME280;5596;46.826;8.650;2023-04-30T07:40:08;96170.25;;;14.11;100.00
11085;BME280;5596;46.826;8.650;2023-04-30T07:42:38;96164.44;;;14.29;100.00
11085;BME280;5596;46.826;8.650;2023-04-30T07:45:05;96166.19;;;14.41;100.00
11085;BME280;5596;46.826;8.650;2023-04-30T07:47:32;96160.84;;;14.51;100.00
11085;BME280;5596;46.826;8.650;2023-04-30T07:49:59;96157.44;;;14.65;100.00
11085;BME280;5596;46.826;8.650;2023-04-30T07:52:25;96158.66;;;14.85;100.00
11085;BME280;5596;46.826;8.650;2023-04-30T07:54:52;96143.81;;;15.02;100.00
11085;BME280;5596;46.826;8.650;2023-04-30T07:57:19;96140.16;;;15.29;100.00
11085;BME280;5596;46.826;8.650;2023-04-30T07:59:47;96136.94;;;15.37;100.00
11085;BME280;5596;46.826;8.650;2023-04-30T08:02:14;96150.94;;;15.56;100.00
11085;BME280;5596;46.826;8.650;2023-04-30T08:04:41;96141.72;;;15.72;100.00
11085;BME280;5596;46.826;8.650;2023-04-30T08:07:08;96140.69;;;15.88;100.00
11085;BME280;5596;46.826;8.650;2023-04-30T08:09:35;96146.13;;;15.88;100.00
11085;BME280;5596;46.826;8.650;2023-04-30T08:12:01;96142.25;;;15.74;100.00
11085;BME280;5596;46.826;8.650;2023-04-30T08:14:29;96135.72;;;15.75;100.00
11085;BME280;5596;46.826;8.650;2023-04-30T08:16:57;96136.03;;;15.78;100.00
11085;BME280;5596;46.826;8.650;2023-04-30T08:19:25;96135.50;;;15.86;100.00
11085;BME280;5596;46.826;8.650;2023-04-30T08:21:51;96141.81;;;16.07;100.00
11085;BME280;5596;46.826;8.650;2023-04-30T08:24:18;96130.13;;;16.22;100.00
11085;BME280;5596;46.826;8.650;2023-04-30T08:26:45;96134.50;;;16.33;100.00
11085;BME280;5596;46.826;8.650;2023-04-30T08:29:12;96131.19;;;16.26;100.00
11085;BME280;5596;46.826;8.650;2023-04-30T08:31:38;96139.09;;;16.22;100.00
11085;BME280;5596;46.826;8.650;2023-04-30T08:34:06;96132.28;;;16.35;100.00
11085;BME280;5596;46.826;8.650;2023-04-30T08:36:33;96132.56;;;16.39;100.00
11085;BME280;5596;46.826;8.650;2023-04-30T08:39:00;96132.59;;;16.49;100.00
11085;BME280;5596;46.826;8.650;2023-04-30T08:41:31;96136.69;;;16.67;100.00
11085;BME280;5596;46.826;8.650;2023-04-30T08:43:59;96128.50;;;16.77;100.00
11085;BME280;5596;46.826;8.650;2023-04-30T08:46:26;96140.50;;;16.81;100.00
11085;BME280;5596;46.826;8.650;2023-04-30T08:48:56;96138.84;;;16.80;100.00
11085;BME280;5596;46.826;8.650;2023-04-30T08:51:24;96137.78;;;16.66;100.00
11085;BME280;5596;46.826;8.650;2023-04-30T08:53:52;96139.13;;;16.68;100.00
11085;BME280;5596;46.826;8.650;2023-04-30T08:56:20;96144.84;;;16.56;100.00
11085;BME280;5596;46.826;8.650;2023-04-30T08:58:47;96137.22;;;16.48;100.00
11085;BME280;5596;46.826;8.650;2023-04-30T09:01:14;96138.28;;;16.27;100.00
11085;BME280;5596;46.826;8.650;2023-04-30T09:03:40;96142.66;;;16.23;100.00
11085;BME280;5596;46.826;8.650;2023-04-30T09:06:07;96139.66;;;16.30;100.00
11085;BME280;5596;46.826;8.650;2023-04-30T09:08:42;96135.56;;;16.27;100.00
11085;BME280;5596;46.826;8.650;2023-04-30T09:13:55;96131.22;;;16.56;100.00
11085;BME280;5596;46.826;8.650;2023-04-30T09:16:22;96144.03;;;16.81;100.00
11085;BME280;5596;46.826;8.650;2023-04-30T09:18:49;96139.66;;;16.90;100.00
11085;BME280;5596;46.826;8.650;2023-04-30T09:21:15;96133.38;;;16.95;100.00
11085;BME280;5596;46.826;8.650;2023-04-30T09:26:31;96133.09;;;17.07;100.00
11085;BME280;5596;46.826;8.650;2023-04-30T09:28:58;96124.03;;;17.21;100.00
11085;BME280;5596;46.826;8.650;2023-04-30T09:31:25;96120.72;;;17.29;100.00
11085;BME280;5596;46.826;8.650;2023-04-30T09:33:53;96118.28;;;17.33;100.00
11085;BME280;5596;46.826;8.650;2023-04-30T09:36:19;96109.47;;;17.46;100.00
11085;BME280;5596;46.826;8.650;2023-04-30T09:38:46;96115.44;;;17.63;100.00
11085;BME280;5596;46.826;8.650;2023-04-30T09:41:20;96111.81;;;17.78;99.59
11085;BME280;5596;46.826;8.650;2023-04-30T09:43:49;96107.94;;;17.89;100.00
11085;BME280;5596;46.826;8.650;2023-04-30T09:46:17;96106.78;;;17.95;99.96
11085;BME280;5596;46.826;8.650;2023-04-30T09:48:44;96111.75;;;17.88;99.71
11085;BME280;5596;46.826;8.650;2023-04-30T09:51:11;96106.00;;;17.95;100.00
11085;BME280;5596;46.826;8.650;2023-04-30T09:53:38;96101.69;;;17.84;100.00
11085;BME280;5596;46.826;8.650;2023-04-30T09:56:07;96102.97;;;17.96;98.93
11085;BME280;5596;46.826;8.650;2023-04-30T09:58:35;96100.28;;;17.91;97.20
11085;BME280;5596;46.826;8.650;2023-04-30T10:01:04;96098.00;;;18.03;97.96
11085;BME280;5596;46.826;8.650;2023-04-30T10:03:32;96093.63;;;18.41;96.46
11085;BME280;5596;46.826;8.650;2023-04-30T10:05:59;96089.03;;;18.71;96.63
11085;BME280;5596;46.826;8.650;2023-04-30T10:08:27;96091.47;;;19.01;95.36
11085;BME280;5596;46.826;8.650;2023-04-30T10:10:57;96080.34;;;18.93;93.60
11085;BME280;5596;46.826;8.650;2023-04-30T10:13:26;96079.16;;;18.99;94.05
11085;BME280;5596;46.826;8.650;2023-04-30T10:15:56;96077.72;;;19.06;93.64
11085;BME280;5596;46.826;8.650;2023-04-30T10:18:27;96075.50;;;19.08;91.08
11085;BME280;5596;46.826;8.650;2023-04-30T10:20:54;96079.78;;;19.19;91.88
11085;BME280;5596;46.826;8.650;2023-04-30T10:23:22;96074.50;;;19.23;91.19
11085;BME280;5596;46.826;8.650;2023-04-30T10:25:49;96069.22;;;19.08;88.72
11085;BME280;5596;46.826;8.650;2023-04-30T10:28:17;96066.41;;;18.89;91.62
11085;BME280;5596;46.826;8.650;2023-04-30T10:30:44;96068.56;;;18.92;89.85
11085;BME280;5596;46.826;8.650;2023-04-30T10:33:12;96062.56;;;18.90;89.27
11085;BME280;5596;46.826;8.650;2023-04-30T10:35:44;96060.19;;;18.83;89.25
11085;BME280;5596;46.826;8.650;2023-04-30T10:38:14;96059.78;;;18.95;90.14
11085;BME280;5596;46.826;8.650;2023-04-30T10:40:44;96058.72;;;19.15;89.89
11085;BME280;5596;46.826;8.650;2023-04-30T10:43:11;96052.34;;;19.01;89.91
11085;BME280;5596;46.826;8.650;2023-04-30T10:45:41;96059.50;;;18.97;91.04
11085;BME280;5596;46.826;8.650;2023-04-30T10:48:08;96061.63;;;18.76;91.24
11085;BME280;5596;46.826;8.650;2023-04-30T10:50:38;96055.97;;;18.96;94.31
11085;BME280;5596;46.826;8.650;2023-04-30T10:53:10;96055.53;;;19.08;91.37
11085;BME280;5596;46.826;8.650;2023-04-30T10:55:46;96052.34;;;19.01;91.30
11085;BME280;5596;46.826;8.650;2023-04-30T10:58:23;96051.97;;;18.83;92.55
11085;BME280;5596;46.826;8.650;2023-04-30T11:00:50;96042.00;;;18.69;94.16
11085;BME280;5596;46.826;8.650;2023-04-30T11:03:27;96049.34;;;18.73;93.07
11085;BME280;5596;46.826;8.650;2023-04-30T11:05:53;96049.31;;;18.78;92.31
11085;BME280;5596;46.826;8.650;2023-04-30T11:08:31;96041.78;;;18.89;92.95
11085;BME280;5596;46.826;8.650;2023-04-30T11:10:59;96038.94;;;18.75;92.49
11085;BME280;5596;46.826;8.650;2023-04-30T11:13:26;96034.19;;;18.86;91.24
11085;BME280;5596;46.826;8.650;2023-04-30T11:15:53;96028.13;;;19.13;90.61
11085;BME280;5596;46.826;8.650;2023-04-30T11:18:19;96034.16;;;19.10;86.47
11085;BME280;5596;46.826;8.650;2023-04-30T11:20:50;96028.22;;;19.26;85.46
11085;BME280;5596;46.826;8.650;2023-04-30T11:23:21;96035.44;;;19.17;87.59
11085;BME280;5596;46.826;8.650;2023-04-30T11:25:51;96028.63;;;19.15;85.58
11085;BME280;5596;46.826;8.650;2023-04-30T11:28:20;96026.53;;;19.31;85.82
11085;BME280;5596;46.826;8.650;2023-04-30T11:30:50;96029.13;;;19.41;85.98
11085;BME280;5596;46.826;8.650;2023-04-30T11:33:18;96039.78;;;19.47;89.26
11085;BME280;5596;46.826;8.650;2023-04-30T11:35:45;96022.25;;;19.43;85.72
11085;BME280;5596;46.826;8.650;2023-04-30T11:38:12;96019.63;;;19.57;88.31
11085;BME280;5596;46.826;8.650;2023-04-30T11:40:39;96028.22;;;19.69;83.88
11085;BME280;5596;46.826;8.650;2023-04-30T11:43:19;96032.81;;;19.74;85.00
11085;BME280;5596;46.826;8.650;2023-04-30T11:45:56;96023.19;;;19.57;86.25
11085;BME280;5596;46.826;8.650;2023-04-30T11:48:24;96017.72;;;19.34;86.83
11085;BME280;5596;46.826;8.650;2023-04-30T11:50:56;96025.28;;;19.42;87.51
11085;BME280;5596;46.826;8.650;2023-04-30T11:53:25;96013.78;;;19.21;88.45
11085;BME280;5596;46.826;8.650;2023-04-30T11:55:52;96018.47;;;18.97;88.98
11085;BME280;5596;46.826;8.650;2023-04-30T11:58:21;96014.25;;;18.51;90.31
11085;BME280;5596;46.826;8.650;2023-04-30T12:00:48;96028.38;;;18.35;91.14
11085;BME280;5596;46.826;8.650;2023-04-30T12:03:16;96027.88;;;18.28;91.82
11085;BME280;5596;46.826;8.650;2023-04-30T12:05:44;96019.72;;;18.23;94.19
11085;BME280;5596;46.826;8.650;2023-04-30T12:08:11;96026.78;;;18.29;93.70
11085;BME280;5596;46.826;8.650;2023-04-30T12:10:38;96022.03;;;18.05;95.89
11085;BME280;5596;46.826;8.650;2023-04-30T12:13:05;96030.00;;;18.02;95.47
11085;BME280;5596;46.826;8.650;2023-04-30T12:15:33;96027.00;;;17.98;95.75
11085;BME280;5596;46.826;8.650;2023-04-30T12:18:09;96028.19;;;17.87;95.43
11085;BME280;5596;46.826;8.650;2023-04-30T12:20:37;96027.47;;;17.76;96.15
11085;BME280;5596;46.826;8.650;2023-04-30T12:23:05;96025.38;;;17.97;98.40
11085;BME280;5596;46.826;8.650;2023-04-30T12:25:38;96028.72;;;17.89;96.80
11085;BME280;5596;46.826;8.650;2023-04-30T12:28:05;96041.47;;;17.60;98.26
11085;BME280;5596;46.826;8.650;2023-04-30T12:30:33;96037.91;;;17.59;98.00
11085;BME280;5596;46.826;8.650;2023-04-30T12:33:00;96034.91;;;17.56;98.83
11085;BME280;5596;46.826;8.650;2023-04-30T12:35:28;96043.44;;;17.44;96.71
11085;BME280;5596;46.826;8.650;2023-04-30T12:38:00;96037.66;;;17.56;99.01
11085;BME280;5596;46.826;8.650;2023-04-30T12:40:27;96039.81;;;17.64;97.62
11085;BME280;5596;46.826;8.650;2023-04-30T12:42:58;96038.66;;;17.70;98.20
11085;BME280;5596;46.826;8.650;2023-04-30T12:45:46;96048.00;;;17.59;97.50
11085;BME280;5596;46.826;8.650;2023-04-30T12:48:15;96046.16;;;17.44;97.40
11085;BME280;5596;46.826;8.650;2023-04-30T12:50:46;96045.59;;;17.52;97.61
11085;BME280;5596;46.826;8.650;2023-04-30T12:53:12;96049.63;;;17.65;97.35
11085;BME280;5596;46.826;8.650;2023-04-30T12:55:39;96050.47;;;17.60;95.25
11085;BME280;5596;46.826;8.650;2023-04-30T12:58:07;96048.34;;;17.52;95.00
11085;BME280;5596;46.826;8.650;2023-04-30T13:00:43;96053.53;;;17.49;95.97
11085;BME280;5596;46.826;8.650;2023-04-30T13:03:12;96045.38;;;17.44;95.89
11085;BME280;5596;46.826;8.650;2023-04-30T13:05:39;96051.94;;;17.43;96.34
11085;BME280;5596;46.826;8.650;2023-04-30T13:08:06;96045.88;;;17.46;96.52
11085;BME280;5596;46.826;8.650;2023-04-30T13:10:33;96052.44;;;17.50;97.09
11085;BME280;5596;46.826;8.650;2023-04-30T13:13:01;96060.03;;;17.53;98.06